Time;durP1;ratioP1;P1;durP2;ratioP2;P2;SDS_P1;SDS_P2;PMS_P1;PMS_P2;Temp;Humidity;BMP_temperature;BMP_pressure;BME280_temperature;BME280_humidity;BME280_pressure;Samples;Min_cycle;Max_cycle;Signal;HPM_P1;HPM_P2
2022/02/11 00:00:04;;;;;;;10.27;5.82;;;5.80;99.90;;;;;;5072293;28;20041;-66
2022/02/11 00:07:43;;;;;;;11.70;5.15;;;5.90;99.90;;;;;;5072264;28;20483;-66
2022/02/11 00:10:10;;;;;;;10.35;5.60;;;5.90;99.90;;;;;;5072454;28;20054;-66
2022/02/11 00:12:38;;;;;;;9.40;5.32;;;5.90;99.90;;;;;;5068911;28;20083;-66
2022/02/11 00:17:53;;;;;;;10.52;5.32;;;5.80;99.90;;;;;;5051535;28;20474;-66
2022/02/11 00:20:22;;;;;;;9.25;5.35;;;5.80;99.90;;;;;;5086847;28;20048;-66
2022/02/11 00:22:50;;;;;;;11.70;6.28;;;5.70;99.90;;;;;;5070888;28;20055;-67
2022/02/11 00:25:18;;;;;;;9.75;5.60;;;5.70;99.90;;;;;;5071399;28;20052;-66
2022/02/11 00:28:34;;;;;;;12.15;5.55;;;5.60;99.90;;;;;;5060282;28;20048;-66
2022/02/11 00:33:24;;;;;;;11.13;5.97;;;5.60;99.90;;;;;;5068677;28;20037;-66
2022/02/11 00:35:58;;;;;;;12.30;5.60;;;5.60;99.90;;;;;;5061592;28;20047;-66
2022/02/11 01:03:22;;;;;;;9.90;5.68;;;5.50;99.90;;;;;;5017635;28;20080;-66
2022/02/11 01:05:49;;;;;;;10.60;5.65;;;5.50;99.90;;;;;;5011968;28;20041;-66
2022/02/11 01:08:17;;;;;;;8.65;5.03;;;5.40;99.90;;;;;;5027321;28;20050;-67
2022/02/11 01:10:45;;;;;;;9.38;5.28;;;5.40;99.90;;;;;;5026288;28;20048;-66
2022/02/11 01:13:13;;;;;;;9.07;5.45;;;5.50;99.90;;;;;;5028962;28;20052;-66
2022/02/11 01:15:47;;;;;;;10.63;5.65;;;5.40;99.90;;;;;;5012446;28;20045;-67
2022/02/11 01:18:15;;;;;;;10.80;5.35;;;5.40;99.90;;;;;;5015838;28;20487;-66
2022/02/11 01:20:59;;;;;;;12.50;6.00;;;5.30;99.90;;;;;;5029210;28;20052;-66
2022/02/11 01:37:07;;;;;;;10.95;5.88;;;5.30;99.90;;;;;;5008737;28;20552;-66
2022/02/11 01:40:07;;;;;;;9.82;5.40;;;5.20;99.90;;;;;;5007982;28;20517;-67
2022/02/11 02:00:58;;;;;;;11.70;5.40;;;5.30;99.90;;;;;;5003478;28;20172;-66
2022/02/11 02:08:51;;;;;;;9.50;5.47;;;5.30;99.90;;;;;;5021780;28;20071;-66
2022/02/11 02:22:54;;;;;;;9.27;5.63;;;5.20;99.90;;;;;;5073255;28;20487;-66
2022/02/11 02:25:32;;;;;;;10.63;5.95;;;5.20;99.90;;;;;;5071708;28;20056;-67
2022/02/11 02:33:46;;;;;;;9.40;5.28;;;5.20;99.90;;;;;;5072752;28;20419;-67
2022/02/11 02:58:11;;;;;;;10.27;5.55;;;5.20;99.90;;;;;;5061280;28;20391;-65
2022/02/11 03:01:17;;;;;;;12.85;5.90;;;5.20;99.90;;;;;;5073092;28;20047;-65
2022/02/11 03:15:19;;;;;;;11.10;5.88;;;5.20;99.90;;;;;;5058767;28;20045;-66
2022/02/11 04:56:50;;;;;;;11.70;6.80;;;4.40;99.90;;;;;;4929072;29;20157;-64
2022/02/11 05:02:05;;;;;;;10.23;5.60;;;4.30;99.90;;;;;;4941733;28;20051;-63
2022/02/11 05:04:34;;;;;;;8.75;5.28;;;4.20;99.90;;;;;;4956827;28;20051;-64
2022/02/11 05:07:03;;;;;;;8.02;4.95;;;4.10;99.90;;;;;;4946292;28;20066;-65
2022/02/11 05:09:33;;;;;;;7.72;4.40;;;4.00;99.90;;;;;;4981015;28;20052;-64
2022/02/11 05:12:02;;;;;;;8.38;4.45;;;4.00;99.90;;;;;;4986676;28;20053;-64
2022/02/11 05:14:29;;;;;;;6.13;3.70;;;3.90;99.90;;;;;;4956021;28;20046;-63
2022/02/11 05:16:57;;;;;;;5.15;3.17;;;3.80;99.90;;;;;;4996083;28;20121;-65
2022/02/11 05:19:24;;;;;;;4.72;2.45;;;3.70;99.90;;;;;;4986741;28;20402;-64
2022/02/11 05:21:51;;;;;;;5.95;2.42;;;3.70;99.90;;;;;;4987223;28;20093;-64
2022/02/11 05:24:18;;;;;;;3.03;1.50;;;3.60;99.90;;;;;;4966891;28;20528;-63
2022/02/11 05:26:45;;;;;;;2.95;1.30;;;3.60;99.90;;;;;;4984346;28;20041;-64
2022/02/11 05:29:13;;;;;;;2.25;1.05;;;3.50;99.90;;;;;;4986398;28;20046;-64
2022/02/11 05:31:40;;;;;;;2.88;1.30;;;3.40;99.90;;;;;;4987267;28;20053;-64
2022/02/11 05:34:08;;;;;;;2.85;1.00;;;3.20;99.90;;;;;;4997364;28;20780;-63
2022/02/11 05:36:35;;;;;;;2.65;1.40;;;3.30;99.90;;;;;;5067030;28;20032;-63
2022/02/11 05:39:03;;;;;;;2.60;1.33;;;3.20;99.90;;;;;;5050979;28;20056;-63
2022/02/11 05:41:30;;;;;;;3.25;1.65;;;3.10;99.90;;;;;;5050551;28;20495;-64
2022/02/11 05:43:58;;;;;;;2.72;1.40;;;3.00;99.90;;;;;;5069438;28;20487;-63
2022/02/11 05:46:27;;;;;;;2.17;1.20;;;2.90;99.90;;;;;;5069376;28;20143;-63
2022/02/11 05:48:55;;;;;;;2.60;1.67;;;2.90;99.90;;;;;;5067088;28;20063;-63
2022/02/11 05:51:22;;;;;;;3.15;1.80;;;2.90;99.90;;;;;;5068100;28;20049;-63
2022/02/11 05:53:50;;;;;;;3.67;1.75;;;2.90;99.90;;;;;;5072553;28;20040;-64
2022/02/11 05:56:17;;;;;;;2.72;1.50;;;2.90;99.90;;;;;;5072153;28;20037;-64
2022/02/11 05:58:44;;;;;;;2.20;1.38;;;2.90;99.90;;;;;;5073866;28;20450;-63
2022/02/11 06:01:11;;;;;;;2.53;1.63;;;2.80;99.90;;;;;;5053328;28;20040;-64
2022/02/11 06:03:39;;;;;;;4.10;1.67;;;2.80;99.90;;;;;;5043981;28;20040;-65
2022/02/11 06:06:06;;;;;;;5.05;1.70;;;2.80;99.90;;;;;;5067217;28;20048;-65
2022/02/11 06:08:33;;;;;;;4.95;2.00;;;2.70;99.90;;;;;;5073665;28;20129;-65
2022/02/11 06:11:00;;;;;;;3.53;1.80;;;2.70;99.90;;;;;;5053564;28;20032;-65
2022/02/11 06:13:28;;;;;;;3.20;1.52;;;2.70;99.90;;;;;;5065499;28;20056;-65
2022/02/11 06:15:56;;;;;;;3.45;1.80;;;2.60;99.90;;;;;;5072732;28;20040;-66
2022/02/11 06:18:24;;;;;;;4.03;1.80;;;2.60;99.90;;;;;;5065036;28;20067;-66
2022/02/11 06:20:51;;;;;;;3.60;1.88;;;2.60;99.90;;;;;;5054604;28;20047;-65
2022/02/11 06:23:18;;;;;;;3.45;1.90;;;2.70;99.90;;;;;;5050407;28;20479;-65
2022/02/11 06:25:46;;;;;;;2.50;1.50;;;2.60;99.90;;;;;;5066550;28;20439;-65
2022/02/11 06:28:16;;;;;;;3.65;1.70;;;2.60;99.90;;;;;;5067594;28;20506;-65
2022/02/11 06:30:43;;;;;;;3.70;1.80;;;2.60;99.90;;;;;;5073350;28;20056;-65
2022/02/11 06:33:10;;;;;;;3.00;1.83;;;2.60;99.90;;;;;;5073804;28;20044;-66
2022/02/11 06:35:41;;;;;;;3.38;1.83;;;2.60;99.90;;;;;;5069162;28;20090;-65
2022/02/11 06:38:09;;;;;;;3.80;1.95;;;2.50;99.90;;;;;;5060928;28;20333;-64
2022/02/11 06:40:37;;;;;;;3.78;2.00;;;2.50;99.90;;;;;;5070066;28;20047;-66
2022/02/11 06:43:06;;;;;;;3.92;2.10;;;2.50;99.90;;;;;;5065783;28;20029;-66
2022/02/11 06:45:33;;;;;;;4.22;2.40;;;2.40;99.90;;;;;;5041189;28;20045;-65
2022/02/11 06:48:01;;;;;;;3.53;2.38;;;2.40;99.90;;;;;;5057663;28;20068;-67
2022/02/11 06:50:29;;;;;;;4.82;2.80;;;2.30;99.90;;;;;;5053965;28;20056;-66
2022/02/11 06:52:56;;;;;;;4.68;2.88;;;2.30;99.90;;;;;;5065139;28;20052;-64
2022/02/11 06:55:24;;;;;;;4.93;3.42;;;2.30;99.90;;;;;;5059184;28;20491;-65
2022/02/11 06:57:52;;;;;;;5.40;3.22;;;2.20;99.90;;;;;;5067156;28;20457;-65
2022/02/11 07:00:20;;;;;;;5.18;3.10;;;2.20;99.90;;;;;;5072810;28;20047;-66
2022/02/11 07:02:49;;;;;;;6.32;3.80;;;2.10;99.90;;;;;;5086688;28;20168;-65
2022/02/11 07:05:18;;;;;;;5.15;3.03;;;2.10;99.90;;;;;;5072507;28;20522;-65
2022/02/11 07:07:47;;;;;;;6.00;3.25;;;2.10;99.90;;;;;;5071168;28;20143;-65
2022/02/11 07:10:14;;;;;;;5.47;3.35;;;2.20;99.90;;;;;;5054094;28;20044;-65
2022/02/11 07:12:42;;;;;;;5.65;3.35;;;2.10;99.90;;;;;;5060090;28;20055;-65
2022/02/11 07:15:09;;;;;;;5.57;3.40;;;2.00;99.90;;;;;;5046532;28;20557;-66
2022/02/11 07:17:37;;;;;;;7.28;3.53;;;2.00;99.90;;;;;;5066199;28;20051;-67
2022/02/11 07:20:06;;;;;;;6.70;3.35;;;2.00;99.90;;;;;;5061862;28;20384;-66
2022/02/11 07:22:37;;;;;;;6.32;3.83;;;2.00;99.90;;;;;;5062572;28;20120;-65
2022/02/11 07:25:14;;;;;;;5.72;3.42;;;1.90;99.90;;;;;;5072280;28;20044;-66
2022/02/11 07:27:41;;;;;;;5.85;3.60;;;1.90;99.90;;;;;;5073674;28;20040;-66
2022/02/11 07:30:28;;;;;;;7.55;3.92;;;2.00;99.90;;;;;;5048956;28;20052;-66
2022/02/11 07:32:55;;;;;;;7.32;4.15;;;2.00;99.90;;;;;;5072742;28;20054;-67
2022/02/11 07:35:23;;;;;;;7.32;3.50;;;2.10;99.90;;;;;;5044723;28;20768;-66
2022/02/11 07:37:51;;;;;;;11.27;4.15;;;2.10;99.90;;;;;;5066636;28;20048;-66
2022/02/11 07:40:20;;;;;;;6.10;4.05;;;2.10;99.90;;;;;;5072739;28;20041;-65
2022/02/11 07:42:51;;;;;;;8.20;4.10;;;2.20;99.90;;;;;;5072360;28;20052;-65
2022/02/11 07:45:22;;;;;;;;;;;2.30;99.90;;;;;;5059769;28;20507;-65
2022/02/11 07:47:50;;;;;;;9.38;4.80;;;2.40;99.90;;;;;;5070528;28;20374;-65
2022/02/11 07:50:17;;;;;;;9.05;4.50;;;2.30;99.90;;;;;;5058468;28;20072;-66
2022/02/11 07:52:45;;;;;;;6.55;4.50;;;2.40;99.90;;;;;;5063701;28;20040;-66
2022/02/11 07:55:12;;;;;;;8.07;4.35;;;2.40;99.90;;;;;;5050778;28;20463;-65
2022/02/11 07:57:39;;;;;;;9.40;4.72;;;2.50;99.90;;;;;;5063471;28;20032;-66
2022/02/11 08:00:10;;;;;;;6.68;4.53;;;2.50;99.90;;;;;;5071754;28;20083;-64
2022/02/11 08:02:38;;;;;;;8.45;4.30;;;2.50;99.90;;;;;;5051532;28;20199;-66
2022/02/11 08:05:07;;;;;;;10.60;4.85;;;2.50;99.90;;;;;;5071287;28;20044;-65
2022/02/11 08:07:34;;;;;;;9.85;4.80;;;2.60;99.90;;;;;;5070476;28;20048;-66
2022/02/11 08:10:02;;;;;;;8.75;4.85;;;2.60;99.90;;;;;;5071899;28;20045;-65
2022/02/11 08:12:34;;;;;;;17.38;5.78;;;2.70;99.90;;;;;;5069165;28;20839;-65
2022/02/11 08:15:03;;;;;;;11.38;5.35;;;2.90;99.90;;;;;;5070729;28;20471;-66
2022/02/11 08:17:31;;;;;;;11.05;4.80;;;3.00;99.90;;;;;;5071298;28;20098;-66
2022/02/11 08:19:58;;;;;;;9.50;5.25;;;3.10;99.90;;;;;;5070749;28;20037;-65
2022/02/11 08:22:25;;;;;;;18.80;7.22;;;3.10;99.90;;;;;;5071968;28;20118;-65
2022/02/11 08:24:52;;;;;;;8.55;5.07;;;3.10;99.90;;;;;;5071344;28;20048;-66
2022/02/11 08:27:20;;;;;;;8.07;4.72;;;3.20;99.90;;;;;;5069678;28;20040;-65
2022/02/11 08:29:47;;;;;;;7.07;5.00;;;3.40;99.90;;;;;;5071661;28;20079;-66
2022/02/11 08:32:15;;;;;;;7.93;4.65;;;3.30;99.90;;;;;;5052755;28;20717;-67
2022/02/11 08:34:42;;;;;;;10.45;4.72;;;3.30;99.90;;;;;;5051857;28;20067;-65
2022/02/11 08:37:09;;;;;;;10.35;5.07;;;3.20;99.90;;;;;;5070518;28;20423;-65
2022/02/11 08:39:38;;;;;;;7.97;4.18;;;3.20;99.90;;;;;;5070143;28;20487;-65
2022/02/11 08:42:07;;;;;;;8.30;4.07;;;3.20;99.90;;;;;;5065262;28;20108;-67
2022/02/11 08:44:35;;;;;;;8.45;4.30;;;3.10;99.90;;;;;;5064657;28;20032;-66
2022/02/11 08:47:03;;;;;;;10.35;4.20;;;3.20;99.90;;;;;;5052260;28;20048;-66
2022/02/11 08:49:31;;;;;;;9.98;4.55;;;3.30;99.90;;;;;;5065474;28;20145;-66
2022/02/11 08:52:00;;;;;;;11.80;4.70;;;3.20;99.90;;;;;;5069739;28;20059;-65
2022/02/11 08:54:27;;;;;;;9.90;4.60;;;3.10;99.90;;;;;;5067525;28;20036;-65
2022/02/11 08:56:54;;;;;;;7.18;4.97;;;3.10;99.90;;;;;;5070163;28;20044;-64
2022/02/11 08:59:22;;;;;;;11.27;4.82;;;3.10;99.90;;;;;;5066237;28;20098;-65
2022/02/11 09:01:50;;;;;;;7.43;4.75;;;3.30;99.90;;;;;;5069404;28;20166;-65
2022/02/11 09:04:17;;;;;;;9.45;4.30;;;3.30;99.90;;;;;;5069493;28;20047;-65
2022/02/11 09:06:46;;;;;;;9.13;4.78;;;3.40;99.90;;;;;;5068393;28;20119;-65
2022/02/11 09:09:15;;;;;;;8.50;4.38;;;3.40;99.90;;;;;;5051734;28;20071;-65
2022/02/11 09:11:43;;;;;;;8.95;3.70;;;3.50;99.90;;;;;;5065758;28;20060;-65
2022/02/11 09:14:11;;;;;;;6.40;3.90;;;3.60;99.90;;;;;;5071326;28;20067;-66
2022/02/11 09:16:38;;;;;;;9.07;3.50;;;3.60;99.90;;;;;;5070116;28;20470;-65
2022/02/11 09:19:09;;;;;;;9.68;4.35;;;3.60;99.90;;;;;;5052533;28;20075;-65
2022/02/11 09:21:37;;;;;;;9.77;3.83;;;3.80;99.90;;;;;;5070682;28;20040;-63
2022/02/11 09:24:05;;;;;;;8.13;4.15;;;4.00;99.90;;;;;;5056580;28;20049;-66
2022/02/11 09:26:33;;;;;;;7.65;3.97;;;4.10;99.90;;;;;;5066941;28;20876;-65
2022/02/11 09:29:05;;;;;;;9.80;4.20;;;4.40;99.90;;;;;;5068957;28;20602;-65
2022/02/11 09:31:32;;;;;;;11.25;3.95;;;4.60;99.90;;;;;;5069003;28;20086;-66
2022/02/11 09:34:06;;;;;;;12.30;4.10;;;4.70;99.90;;;;;;5050838;28;20062;-65
2022/02/11 09:36:34;;;;;;;9.60;3.92;;;4.50;99.90;;;;;;5067517;28;20136;-66
2022/02/11 09:39:04;;;;;;;14.23;5.32;;;4.40;99.90;;;;;;5067714;28;20037;-65
2022/02/11 09:41:32;;;;;;;9.98;3.53;;;4.40;99.90;;;;;;5033314;28;20045;-65
2022/02/11 09:44:00;;;;;;;7.35;3.80;;;4.50;99.90;;;;;;5068259;28;20040;-65
2022/02/11 09:46:30;;;;;;;8.63;3.67;;;4.50;99.90;;;;;;5069718;28;20736;-65
2022/02/11 09:48:56;;;;;;;6.30;3.60;;;4.50;99.90;;;;;;5061404;28;20549;-66
2022/02/11 09:51:23;;;;;;;10.85;3.67;;;4.40;99.90;;;;;;5064651;28;20452;-65
2022/02/11 09:53:51;;;;;;;14.45;3.67;;;4.30;99.90;;;;;;5065142;28;20056;-66
2022/02/11 09:56:19;;;;;;;9.43;3.60;;;4.20;99.90;;;;;;5055143;28;20060;-67
2022/02/11 09:59:05;;;;;;;8.90;3.60;;;4.20;99.90;;;;;;5060169;28;20520;-66
2022/02/11 10:01:32;;;;;;;9.73;4.07;;;4.10;99.90;;;;;;5067150;28;20056;-65
2022/02/11 10:04:12;;;;;;;11.90;3.85;;;4.10;99.90;;;;;;5049482;28;20032;-66
2022/02/11 10:06:40;;;;;;;11.13;3.47;;;4.10;99.90;;;;;;5060944;28;20044;-66
2022/02/11 10:09:08;;;;;;;9.25;3.53;;;4.10;99.90;;;;;;5050482;28;20048;-66
2022/02/11 10:11:36;;;;;;;5.93;3.05;;;4.10;99.90;;;;;;5059985;28;20048;-70
2022/02/11 10:14:25;;;;;;;13.40;3.85;;;4.10;99.90;;;;;;5063077;28;20511;-64
2022/02/11 10:16:59;;;;;;;13.18;4.10;;;4.00;99.90;;;;;;5058925;28;20065;-65
2022/02/11 10:19:54;;;;;;;10.00;3.38;;;4.00;99.90;;;;;;5060951;28;20047;-66
2022/02/11 10:22:26;;;;;;;10.80;4.03;;;4.10;99.90;;;;;;5052577;28;20415;-67
2022/02/11 10:24:58;;;;;;;7.85;3.40;;;4.20;99.90;;;;;;5057098;28;20048;-67
2022/02/11 10:27:34;;;;;;;8.60;3.60;;;4.20;99.90;;;;;;5057087;28;20044;-64
2022/02/11 10:30:08;;;;;;;7.45;3.15;;;4.20;99.90;;;;;;5047133;28;20045;-65
2022/02/11 10:32:46;;;;;;;17.35;3.83;;;4.10;99.90;;;;;;5067237;28;20045;-66
2022/02/11 10:35:24;;;;;;;9.80;3.72;;;4.20;99.90;;;;;;5065093;28;20499;-66
2022/02/11 10:38:13;;;;;;;10.85;3.58;;;4.30;99.90;;;;;;5072935;28;20040;-66
2022/02/11 10:40:42;;;;;;;11.80;3.53;;;4.30;99.90;;;;;;5068822;28;20094;-66
2022/02/11 10:43:29;;;;;;;8.18;3.20;;;4.30;99.90;;;;;;5065484;28;20048;-67
2022/02/11 10:46:01;;;;;;;9.00;3.50;;;4.30;99.90;;;;;;5069084;28;20511;-66
2022/02/11 10:48:34;;;;;;;7.72;2.85;;;4.30;99.90;;;;;;5067501;28;20048;-65
2022/02/11 10:51:04;;;;;;;8.50;2.55;;;4.30;99.90;;;;;;5072225;28;20045;-65
2022/02/11 10:53:34;;;;;;;11.73;3.17;;;4.40;99.90;;;;;;5069662;28;20391;-64
2022/02/11 10:56:03;;;;;;;10.98;3.20;;;4.40;99.90;;;;;;5071612;28;20495;-65
2022/02/11 10:58:32;;;;;;;8.13;3.00;;;4.30;99.90;;;;;;5071900;28;20041;-66
2022/02/11 11:01:03;;;;;;;10.90;3.40;;;4.30;99.90;;;;;;5059363;28;20033;-65
2022/02/11 11:03:35;;;;;;;12.20;3.83;;;4.50;99.90;;;;;;5070060;28;20045;-66
2022/02/11 11:06:06;;;;;;;7.72;3.85;;;4.50;99.90;;;;;;5072281;28;20048;-65
2022/02/11 11:08:38;;;;;;;8.35;3.63;;;4.60;99.90;;;;;;5063652;28;20514;-65
2022/02/11 11:11:12;;;;;;;6.47;3.28;;;4.70;99.90;;;;;;5072229;28;20041;-65
2022/02/11 11:13:42;;;;;;;10.13;3.85;;;4.70;99.90;;;;;;5051844;28;20058;-65
2022/02/11 11:16:11;;;;;;;7.00;3.20;;;4.70;99.90;;;;;;5069726;28;20410;-66
2022/02/11 11:18:39;;;;;;;8.00;3.22;;;4.60;99.90;;;;;;5071867;28;20040;-65
2022/02/11 11:21:11;;;;;;;12.63;3.53;;;4.60;99.90;;;;;;5053003;28;20041;-66
2022/02/11 11:23:57;;;;;;;10.25;3.22;;;4.60;99.90;;;;;;5072861;28;20665;-65
2022/02/11 11:26:39;;;;;;;7.38;3.03;;;4.70;99.90;;;;;;5061751;28;20045;-65
2022/02/11 11:29:09;;;;;;;9.73;3.55;;;4.70;99.90;;;;;;5066808;28;20044;-66
2022/02/11 11:31:36;;;;;;;7.45;3.13;;;4.80;99.90;;;;;;5068187;28;20040;-65
2022/02/11 11:34:17;;;;;;;9.68;3.00;;;4.90;99.90;;;;;;5053232;28;20446;-65
2022/02/11 11:37:00;;;;;;;6.72;2.60;;;5.10;99.90;;;;;;5047733;28;20041;-62
2022/02/11 11:39:28;;;;;;;7.53;2.70;;;5.10;99.90;;;;;;5064834;28;20399;-63
2022/02/11 11:42:17;;;;;;;7.50;2.72;;;5.30;99.90;;;;;;5044370;28;20041;-63
2022/02/11 11:44:51;;;;;;;7.78;2.83;;;5.50;99.90;;;;;;5067144;28;20392;-64
2022/02/11 11:47:34;;;;;;;7.88;2.22;;;5.80;99.90;;;;;;5035029;28;20052;-66
2022/02/11 11:50:03;;;;;;;9.98;2.70;;;5.80;99.90;;;;;;5065242;28;20057;-66
2022/02/11 11:52:46;;;;;;;9.07;3.13;;;5.80;99.90;;;;;;5056051;28;20531;-65
2022/02/11 11:55:16;;;;;;;6.22;2.28;;;5.60;99.90;;;;;;5063029;28;20036;-64
2022/02/11 11:57:44;;;;;;;7.18;2.67;;;5.40;99.90;;;;;;5062110;28;20060;-66
2022/02/11 12:00:12;;;;;;;10.07;3.55;;;5.30;99.90;;;;;;5071640;28;20108;-66
2022/02/11 12:02:49;;;;;;;6.70;3.22;;;5.40;99.90;;;;;;5070502;28;20029;-65
2022/02/11 12:05:43;;;;;;;8.70;3.13;;;5.60;99.90;;;;;;5070360;28;20048;-66
2022/02/11 12:08:10;;;;;;;6.57;2.78;;;6.00;99.90;;;;;;5062357;28;20040;-65
2022/02/11 12:10:38;;;;;;;8.10;3.90;;;6.50;99.90;;;;;;5069756;28;20044;-66
2022/02/11 12:13:06;;;;;;;9.20;3.28;;;6.80;99.90;;;;;;5070819;28;20044;-65
2022/02/11 12:15:34;;;;;;;8.48;2.72;;;7.00;99.90;;;;;;5069514;28;20045;-66
2022/02/11 12:18:01;;;;;;;6.80;3.00;;;7.30;99.90;;;;;;5071247;28;20033;-66
2022/02/11 12:20:28;;;;;;;8.88;3.92;;;7.40;99.90;;;;;;5068347;28;20498;-65
2022/02/11 12:28:30;;;;;;;5.90;2.55;;;7.30;99.90;;;;;;5037896;28;20534;-64
2022/02/11 12:31:02;;;;;;;6.35;2.20;;;6.50;99.90;;;;;;5063973;28;20094;-63
2022/02/11 12:33:29;;;;;;;;;;;6.20;99.90;;;;;;5070369;28;20040;-65
2022/02/11 12:36:10;;;;;;;7.05;2.75;;;6.10;99.90;;;;;;5062535;28;19966;-64
2022/02/11 12:38:38;;;;;;;8.02;2.97;;;6.00;99.90;;;;;;5061904;28;20159;-67
2022/02/11 12:41:06;;;;;;;6.82;2.28;;;6.00;99.90;;;;;;5062558;28;20055;-66
2022/02/11 12:43:33;;;;;;;10.32;2.50;;;6.00;99.90;;;;;;5062913;28;20478;-65
2022/02/11 12:46:03;;;;;;;7.32;3.00;;;5.80;99.90;;;;;;5052894;28;20148;-65
2022/02/11 12:48:33;;;;;;;8.02;2.30;;;5.80;99.90;;;;;;5049558;28;20437;-65
2022/02/11 12:51:07;;;;;;;6.15;2.15;;;5.60;99.90;;;;;;5070612;28;20048;-66
2022/02/11 12:53:34;;;;;;;6.15;2.15;;;5.50;99.90;;;;;;5066486;28;20041;-63
2022/02/11 12:56:05;;;;;;;7.00;2.10;;;5.40;99.90;;;;;;5052193;28;20057;-66
2022/02/11 12:58:33;;;;;;;8.13;2.45;;;5.20;99.90;;;;;;5068978;28;20049;-66
2022/02/11 13:01:00;;;;;;;6.75;2.65;;;5.10;99.90;;;;;;5051050;28;20044;-64
2022/02/11 13:03:31;;;;;;;8.05;2.67;;;5.10;99.90;;;;;;5070662;28;20442;-67
2022/02/11 13:06:02;;;;;;;6.72;2.63;;;4.90;99.90;;;;;;5072390;28;20048;-65
2022/02/11 13:08:31;;;;;;;8.90;2.95;;;5.00;99.90;;;;;;5070658;28;20389;-66
2022/02/11 13:11:06;;;;;;;6.55;2.60;;;5.10;99.90;;;;;;5069481;28;20379;-65
2022/02/11 13:13:35;;;;;;;6.60;2.45;;;5.30;99.90;;;;;;5069177;28;20059;-67
2022/02/11 13:16:05;;;;;;;9.32;3.03;;;5.50;99.90;;;;;;5052851;28;20048;-67
2022/02/11 13:18:38;;;;;;;11.80;2.78;;;5.90;99.90;;;;;;5053617;28;20410;-65
2022/02/11 13:21:09;;;;;;;8.80;3.38;;;5.90;99.90;;;;;;5070450;28;20109;-66
2022/02/11 13:23:37;;;;;;;6.03;2.50;;;5.90;99.90;;;;;;5069588;28;20105;-65
2022/02/11 13:26:12;;;;;;;12.18;2.75;;;6.00;99.90;;;;;;5049990;28;20052;-66
2022/02/11 13:28:49;;;;;;;6.50;2.70;;;5.80;99.90;;;;;;5068725;28;20564;-67
2022/02/11 13:31:18;;;;;;;6.72;2.60;;;5.60;99.90;;;;;;5051675;28;20564;-66
2022/02/11 13:33:49;;;;;;;12.18;3.28;;;5.60;99.90;;;;;;5070396;28;20463;-66
2022/02/11 13:36:25;;;;;;;10.18;2.72;;;5.60;99.90;;;;;;5052905;28;20033;-66
2022/02/11 13:38:52;;;;;;;7.65;3.03;;;5.70;99.90;;;;;;5058002;28;20048;-64
2022/02/11 13:41:32;;;;;;;9.80;2.70;;;5.80;99.90;;;;;;5069550;28;20106;-65
2022/02/11 13:44:06;;;;;;;7.90;2.55;;;5.90;99.90;;;;;;5071281;28;20043;-67
2022/02/11 13:46:55;;;;;;;8.70;2.88;;;7.00;99.90;;;;;;5069141;28;20511;-65
2022/02/11 13:49:23;;;;;;;9.02;2.30;;;7.50;99.90;;;;;;5068400;28;20546;-66
2022/02/11 13:55:01;;;;;;;11.20;2.42;;;8.60;99.90;;;;;;5067277;28;20512;-66
2022/02/11 13:57:29;;;;;;;6.53;2.40;;;11.70;99.90;;;;;;5058733;28;20527;-64
2022/02/11 13:59:56;;;;;;;5.95;2.17;;;13.20;99.90;;;;;;5067217;28;20037;-66
2022/02/11 14:02:31;;;;;;;6.93;2.13;;;13.70;99.90;;;;;;5054341;28;20043;-66
2022/02/11 14:05:03;;;;;;;6.32;2.08;;;13.80;99.90;;;;;;5049997;28;20081;-64
2022/02/11 14:07:30;;;;;;;6.22;2.30;;;13.10;99.90;;;;;;5064798;28;20053;-65
2022/02/11 14:09:57;;;;;;;6.32;2.45;;;12.00;99.90;;;;;;5068647;28;20048;-67
2022/02/11 14:12:25;;;;;;;5.57;2.13;;;10.20;99.90;;;;;;5065197;28;20037;-65
2022/02/11 14:14:55;;;;;;;6.88;2.80;;;8.50;99.90;;;;;;5071362;28;20624;-65
2022/02/11 14:17:23;;;;;;;8.38;2.08;;;7.60;99.90;;;;;;5072720;28;20483;-64
2022/02/11 14:19:50;;;;;;;11.40;2.50;;;7.10;99.90;;;;;;5051316;28;20597;-65
2022/02/11 14:22:18;;;;;;;6.18;2.35;;;6.50;99.90;;;;;;5067163;28;20040;-65
2022/02/11 14:24:45;;;;;;;8.80;2.90;;;5.90;99.90;;;;;;5070882;28;20036;-65
2022/02/11 14:27:13;;;;;;;8.45;2.60;;;5.70;99.90;;;;;;5067068;28;20059;-64
2022/02/11 14:29:40;;;;;;;7.38;2.45;;;5.60;99.90;;;;;;5058477;28;20087;-66
2022/02/11 14:32:08;;;;;;;7.55;2.38;;;6.40;99.90;;;;;;5072490;28;20532;-64
2022/02/11 14:34:35;;;;;;;9.68;3.20;;;6.40;99.90;;;;;;5072287;28;20054;-65
2022/02/11 14:37:03;;;;;;;6.50;2.92;;;6.20;99.90;;;;;;5068197;28;20043;-66
2022/02/11 14:39:30;;;;;;;7.60;2.83;;;5.80;99.90;;;;;;5055125;28;20521;-65
2022/02/11 14:42:01;;;;;;;5.72;3.03;;;5.70;99.90;;;;;;5071389;28;20060;-65
2022/02/11 14:44:30;;;;;;;9.70;2.83;;;5.50;99.90;;;;;;5073115;28;20529;-65
2022/02/11 14:47:00;;;;;;;10.35;2.88;;;5.40;99.90;;;;;;5054126;28;20369;-66
2022/02/11 14:49:28;;;;;;;7.70;2.78;;;5.40;99.90;;;;;;5069786;28;20490;-65
2022/02/11 14:51:58;;;;;;;8.95;2.95;;;5.30;99.90;;;;;;5065761;28;20060;-66
2022/02/11 14:54:26;;;;;;;9.50;2.97;;;5.50;99.90;;;;;;5068479;28;20373;-66
2022/02/11 14:56:55;;;;;;;6.85;2.65;;;6.60;99.90;;;;;;5066509;28;20056;-66
2022/02/11 14:59:24;;;;;;;7.95;2.30;;;9.00;99.90;;;;;;5066293;28;20041;-66
2022/02/11 15:01:53;;;;;;;9.65;2.78;;;11.10;99.90;;;;;;5070486;28;20045;-65
2022/02/11 15:04:21;;;;;;;7.95;2.60;;;12.60;99.90;;;;;;5062352;28;20079;-66
2022/02/11 15:06:54;;;;;;;6.10;2.45;;;12.90;99.90;;;;;;5068316;28;20479;-67
2022/02/11 15:09:21;;;;;;;6.88;2.47;;;12.90;99.90;;;;;;5066846;28;20047;-66
2022/02/11 15:11:48;;;;;;;8.05;2.40;;;13.30;99.90;;;;;;5070497;28;20049;-67
2022/02/11 15:14:21;;;;;;;7.38;2.50;;;13.90;99.90;;;;;;5065409;28;20127;-66
2022/02/11 15:16:50;;;;;;;5.40;2.30;;;12.70;99.90;;;;;;5049713;28;20040;-66
2022/02/11 15:19:18;;;;;;;5.03;1.73;;;10.40;99.90;;;;;;5049406;28;20039;-66
2022/02/11 15:21:46;;;;;;;6.00;2.13;;;8.70;99.90;;;;;;5067655;28;20040;-66
2022/02/11 15:24:14;;;;;;;7.28;2.75;;;8.00;99.90;;;;;;5066417;28;20447;-66
2022/02/11 15:26:42;;;;;;;5.82;1.70;;;7.30;99.90;;;;;;5049137;28;20049;-67
2022/02/11 15:29:09;;;;;;;7.57;2.20;;;8.20;99.90;;;;;;5065348;28;20047;-64
2022/02/11 15:31:38;;;;;;;6.65;1.70;;;9.80;99.90;;;;;;5062464;28;20136;-65
2022/02/11 15:34:06;;;;;;;7.40;1.77;;;11.20;99.90;;;;;;5050023;28;20668;-68
2022/02/11 15:36:34;;;;;;;6.85;1.90;;;12.10;99.90;;;;;;5058592;28;20040;-66
2022/02/11 15:39:03;;;;;;;4.47;1.80;;;11.70;99.90;;;;;;5042649;28;20414;-68
2022/02/11 15:41:30;;;;;;;9.43;2.40;;;11.60;99.90;;;;;;5033750;28;20058;-67
2022/02/11 15:43:59;;;;;;;6.63;1.80;;;11.20;99.90;;;;;;5071113;28;20482;-67
2022/02/11 15:46:27;;;;;;;6.97;2.00;;;10.70;99.90;;;;;;5070587;28;20102;-67
2022/02/11 15:48:55;;;;;;;6.80;2.10;;;9.60;99.90;;;;;;5069321;28;20090;-65
2022/02/11 15:51:22;;;;;;;7.88;1.80;;;9.30;99.90;;;;;;5063590;28;20040;-66
2022/02/11 15:53:49;;;;;;;6.65;1.80;;;9.10;99.90;;;;;;5037113;28;20044;-66
2022/02/11 15:56:17;;;;;;;8.63;2.10;;;9.00;99.90;;;;;;5068027;28;20048;-66
2022/02/11 15:58:44;;;;;;;5.22;2.20;;;9.30;99.90;;;;;;5061717;28;20040;-65
2022/02/11 16:01:12;;;;;;;7.22;2.10;;;9.50;99.90;;;;;;5054831;28;20142;-65
2022/02/11 16:03:39;;;;;;;7.13;2.35;;;9.20;99.90;;;;;;5071571;28;20055;-65
2022/02/11 16:06:07;;;;;;;8.15;2.17;;;8.80;99.90;;;;;;5072198;28;20064;-67
2022/02/11 16:08:34;;;;;;;7.65;3.05;;;8.00;99.90;;;;;;5053372;28;20148;-66
2022/02/11 16:11:03;;;;;;;5.57;2.45;;;7.50;99.90;;;;;;5053658;28;20057;-67
2022/02/11 16:13:30;;;;;;;8.77;2.22;;;7.10;99.90;;;;;;5057026;28;20083;-64
2022/02/11 16:15:57;;;;;;;8.65;2.08;;;6.80;99.90;;;;;;5056885;28;20056;-66
2022/02/11 16:18:25;;;;;;;7.20;2.47;;;6.40;99.90;;;;;;5065056;28;20036;-66
2022/02/11 16:20:55;;;;;;;10.38;2.47;;;6.20;99.90;;;;;;5069748;28;20040;-66
2022/02/11 16:23:24;;;;;;;8.98;2.42;;;5.80;99.90;;;;;;5070132;28;20042;-65
2022/02/11 16:25:54;;;;;;;7.70;2.50;;;5.50;99.90;;;;;;5042716;28;20074;-67
2022/02/11 16:28:22;;;;;;;7.78;2.75;;;5.40;99.90;;;;;;5065563;28;20396;-67
2022/02/11 16:30:50;;;;;;;7.82;2.30;;;5.20;99.90;;;;;;5070151;28;20111;-64
2022/02/11 16:33:19;;;;;;;11.55;2.20;;;5.10;99.90;;;;;;5055546;28;20048;-67
2022/02/11 16:35:48;;;;;;;7.90;2.55;;;5.10;99.90;;;;;;5054832;28;20056;-66
2022/02/11 16:38:16;;;;;;;7.78;2.50;;;5.00;99.90;;;;;;5067579;28;20072;-65
2022/02/11 16:40:43;;;;;;;12.32;2.60;;;5.00;99.90;;;;;;5061700;28;20136;-64
2022/02/11 16:43:11;;;;;;;12.43;3.15;;;5.00;99.90;;;;;;5054239;28;20041;-66
2022/02/11 16:45:38;;;;;;;10.23;3.40;;;5.00;99.90;;;;;;5064020;28;20037;-65
2022/02/11 16:48:06;;;;;;;12.13;2.95;;;4.90;99.90;;;;;;5069197;28;20581;-67
2022/02/11 16:50:33;;;;;;;9.60;3.08;;;4.90;99.90;;;;;;5070747;28;20048;-65
2022/02/11 16:53:00;;;;;;;8.73;2.83;;;4.90;99.90;;;;;;5071168;28;20115;-65
2022/02/11 16:55:29;;;;;;;11.63;2.67;;;4.90;99.90;;;;;;5069627;28;20087;-65
2022/02/11 16:57:57;;;;;;;7.47;2.78;;;4.90;99.90;;;;;;5067640;28;20051;-65
2022/02/11 17:00:25;;;;;;;11.00;3.55;;;4.90;99.90;;;;;;5062099;28;20041;-65
2022/02/11 17:02:52;;;;;;;12.02;2.85;;;4.90;99.90;;;;;;5037161;28;20032;-67